createdAt,value
2022-11-30T00:00:10.279Z,74.23
2022-11-30T00:05:13.146Z,72.87
2022-11-30T00:10:15.402Z,73.43
2022-11-30T00:15:17.512Z,73.12
2022-11-30T00:20:18.534Z,73.92
2022-11-30T00:25:21.393Z,73.90
2022-11-30T00:30:22.207Z,73.96
2022-11-30T00:35:22.979Z,73.73
2022-11-30T00:40:25.128Z,72.92
2022-11-30T00:45:25.900Z,73.53
2022-11-30T00:50:26.736Z,73.01
2022-11-30T00:55:30.462Z,72.59
2022-11-30T01:00:31.408Z,72.50
2022-11-30T01:05:34.442Z,73.01
2022-11-30T01:10:37.890Z,73.22
2022-11-30T01:15:40.182Z,73.44
2022-11-30T01:20:42.430Z,72.88
2022-11-30T01:25:54.717Z,72.79
2022-11-30T01:30:59.724Z,72.69
2022-11-30T01:36:02.918Z,72.73
2022-11-30T01:41:07.833Z,72.74
2022-11-30T01:46:29.356Z,73.16
2022-11-30T01:51:35.409Z,73.14
2022-11-30T01:56:38.669Z,73.03
2022-11-30T02:01:39.479Z,73.09
2022-11-30T02:06:40.480Z,73.66
2022-11-30T02:11:42.679Z,73.63
2022-11-30T02:16:53.413Z,73.87
2022-11-30T02:22:00.888Z,72.79
2022-11-30T02:27:14.823Z,73.63
2022-11-30T02:32:23.022Z,73.50
2022-11-30T02:37:26.498Z,73.46
2022-11-30T02:42:27.297Z,73.60
2022-11-30T02:47:37.439Z,73.51
2022-11-30T02:52:38.452Z,74.18
2022-11-30T02:57:39.261Z,74.44
2022-11-30T03:02:42.425Z,74.06
2022-11-30T03:07:43.413Z,73.53
2022-11-30T03:12:44.228Z,74.27
2022-11-30T03:17:46.391Z,74.12
2022-11-30T03:22:47.187Z,74.10
2022-11-30T03:27:48.001Z,73.82
2022-11-30T03:32:51.744Z,74.13
2022-11-30T03:37:52.502Z,74.71
2022-11-30T03:42:53.282Z,74.86
2022-11-30T03:47:55.437Z,75.19
2022-11-30T03:52:56.248Z,74.94
2022-11-30T03:57:57.054Z,75.61
2022-11-30T04:02:59.208Z,75.62
2022-11-30T04:08:00.090Z,75.70
2022-11-30T04:13:00.958Z,75.47
2022-11-30T04:18:03.154Z,75.21
2022-11-30T04:23:03.920Z,75.97
2022-11-30T04:28:04.731Z,76.35
2022-11-30T04:33:07.229Z,76.22
2022-11-30T04:38:08.033Z,76.40
2022-11-30T04:43:09.451Z,76.59
2022-11-30T04:48:11.593Z,76.68
2022-11-30T04:53:12.873Z,76.81
2022-11-30T04:58:13.645Z,76.87
2022-11-30T05:03:15.761Z,76.69
2022-11-30T05:08:16.532Z,76.75
2022-11-30T05:13:17.320Z,76.89
2022-11-30T05:18:19.450Z,76.11
2022-11-30T05:23:21.311Z,76.19
2022-11-30T05:28:22.265Z,76.02
2022-11-30T05:33:24.382Z,76.18
2022-11-30T05:38:25.200Z,76.34
2022-11-30T05:43:26.018Z,75.10
2022-11-30T05:48:28.344Z,74.51
2022-11-30T05:53:29.132Z,75.41
2022-11-30T05:58:29.964Z,74.77
2022-11-30T06:03:33.828Z,74.72
2022-11-30T06:08:34.614Z,75.51
2022-11-30T06:13:35.608Z,74.93
2022-11-30T06:18:38.350Z,76.17
2022-11-30T06:23:39.315Z,76.22
2022-11-30T06:28:45.355Z,76.37
2022-11-30T06:33:50.122Z,76.41
2022-11-30T06:38:51.270Z,76.54
2022-11-30T06:43:52.198Z,76.64
2022-11-30T06:48:54.463Z,77.33
2022-11-30T06:53:55.280Z,77.21
2022-11-30T06:59:20.716Z,77.07
2022-11-30T07:04:22.999Z,76.99
2022-11-30T07:09:23.883Z,76.63
2022-11-30T07:14:25.607Z,76.85
2022-11-30T07:19:27.838Z,76.88
2022-11-30T07:24:48.288Z,76.89
2022-11-30T07:29:51.540Z,77.02
2022-11-30T07:34:53.893Z,76.33
2022-11-30T07:39:55.208Z,76.59
2022-11-30T07:44:59.005Z,76.15
2022-11-30T07:50:01.585Z,75.74
2022-11-30T07:55:02.388Z,75.53
2022-11-30T08:00:03.724Z,75.28
2022-11-30T08:05:14.458Z,74.32
2022-11-30T08:10:15.381Z,73.71
2022-11-30T08:15:21.051Z,73.18
2022-11-30T08:20:24.297Z,73.66
2022-11-30T08:25:25.222Z,72.77
2022-11-30T08:30:29.399Z,72.23
2022-11-30T08:35:33.306Z,71.33
2022-11-30T08:40:34.141Z,71.54
2022-11-30T08:45:35.042Z,78.31
2022-11-30T08:50:37.705Z,71.77
2022-11-30T08:55:38.695Z,70.38
2022-11-30T09:00:39.465Z,69.05
2022-11-30T09:05:41.615Z,68.48
2022-11-30T09:10:42.384Z,69.47
2022-11-30T09:15:43.295Z,68.95
2022-11-30T09:20:45.444Z,67.19
2022-11-30T09:25:46.277Z,68.64
2022-11-30T09:30:47.259Z,69.14
2022-11-30T09:35:57.745Z,69.16
2022-11-30T09:41:00.285Z,69.96
2022-11-30T09:46:04.597Z,69.41
2022-11-30T09:51:14.980Z,69.38
2022-11-30T09:56:23.912Z,69.15
2022-11-30T10:01:32.853Z,69.39
2022-11-30T10:06:49.769Z,69.04
2022-11-30T10:11:59.739Z,69.70
2022-11-30T10:17:13.100Z,70.00
2022-11-30T10:22:22.518Z,69.81
2022-11-30T10:27:40.703Z,69.44
2022-11-30T10:32:45.286Z,70.39
2022-11-30T10:37:48.651Z,69.41
2022-11-30T10:42:54.152Z,69.56
2022-11-30T10:48:01.944Z,68.68
2022-11-30T10:53:04.219Z,68.52
2022-11-30T10:58:13.170Z,69.61
2022-11-30T11:03:24.800Z,69.04
2022-11-30T11:08:27.756Z,65.92
2022-11-30T11:13:40.260Z,65.84
2022-11-30T11:18:53.702Z,64.72
2022-11-30T11:23:58.401Z,64.57
2022-11-30T11:29:00.461Z,65.85
2022-11-30T11:34:01.323Z,65.58
2022-11-30T11:39:03.722Z,66.33
2022-11-30T11:44:07.380Z,66.33
2022-11-30T11:49:21.425Z,66.65
2022-11-30T11:54:27.146Z,67.54
2022-11-30T11:59:40.246Z,65.57
2022-11-30T12:04:46.668Z,66.37
2022-11-30T12:09:58.259Z,66.71
2022-11-30T12:14:59.195Z,66.89
2022-11-30T12:20:11.677Z,66.87
2022-11-30T12:25:25.338Z,67.04
2022-11-30T12:30:33.211Z,67.06
2022-11-30T12:35:41.038Z,66.67
2022-11-30T12:40:53.035Z,66.92
2022-11-30T12:46:00.765Z,67.28
2022-11-30T12:51:12.864Z,67.72
2022-11-30T12:56:27.930Z,67.32
2022-11-30T13:01:44.274Z,66.44
2022-11-30T13:06:49.727Z,65.76
2022-11-30T13:11:57.647Z,66.65
2022-11-30T13:17:03.387Z,66.79
2022-11-30T13:22:11.140Z,65.95
2022-11-30T13:27:19.510Z,65.45
2022-11-30T13:32:56.767Z,66.29
2022-11-30T13:37:41.728Z,66.65
2022-11-30T13:42:51.307Z,66.88
2022-11-30T13:47:58.750Z,66.60
2022-11-30T13:53:25.357Z,66.17
2022-11-30T13:58:28.497Z,66.46
2022-11-30T14:03:31.445Z,67.03
2022-11-30T14:08:35.578Z,67.19
2022-11-30T14:13:37.742Z,67.23
2022-11-30T14:18:43.831Z,68.39
2022-11-30T14:23:51.320Z,68.50
2022-11-30T14:29:01.913Z,67.67
2022-11-30T14:34:07.738Z,68.59
2022-11-30T14:39:27.630Z,69.08
2022-11-30T14:44:35.503Z,69.30
2022-11-30T14:49:36.331Z,69.34
2022-11-30T14:54:46.699Z,69.36
2022-11-30T14:59:52.276Z,70.17
2022-11-30T15:04:55.979Z,69.80
2022-11-30T15:10:04.742Z,69.28
2022-11-30T15:15:15.361Z,70.03
2022-11-30T15:20:25.921Z,70.46
2022-11-30T15:25:32.823Z,70.16
2022-11-30T15:30:39.620Z,69.67
2022-11-30T15:36:13.806Z,70.12
2022-11-30T15:41:19.876Z,69.93
2022-11-30T15:46:34.445Z,70.57
2022-11-30T15:51:39.211Z,70.27
2022-11-30T15:56:40.072Z,71.20
2022-11-30T16:02:04.804Z,69.80
2022-11-30T16:07:05.802Z,71.06
2022-11-30T16:12:25.974Z,71.10
2022-11-30T16:17:30.169Z,70.79
2022-11-30T16:22:31.008Z,70.00
2022-11-30T16:27:31.809Z,70.34
2022-11-30T16:32:34.018Z,70.62
2022-11-30T16:37:34.805Z,69.94
2022-11-30T16:42:35.592Z,70.23
2022-11-30T16:47:37.794Z,71.06
2022-11-30T16:52:38.721Z,70.94
2022-11-30T16:57:39.509Z,70.47
2022-11-30T17:02:46.090Z,71.41
2022-11-30T17:07:46.969Z,71.87
2022-11-30T17:12:48.104Z,71.91
2022-11-30T17:17:50.290Z,71.19
2022-11-30T17:22:51.135Z,70.82
2022-11-30T17:27:52.293Z,71.28
2022-11-30T17:32:54.574Z,71.55
2022-11-30T17:37:55.565Z,70.16
2022-11-30T17:42:56.372Z,71.24
2022-11-30T17:47:58.527Z,71.75
2022-11-30T17:52:59.477Z,71.18
2022-11-30T17:58:00.376Z,71.86
2022-11-30T18:03:02.691Z,72.30
2022-11-30T18:08:03.649Z,72.94
2022-11-30T18:13:04.503Z,73.05
2022-11-30T18:18:06.895Z,74.04
2022-11-30T18:23:07.682Z,74.31
2022-11-30T18:28:08.509Z,75.56
2022-11-30T18:33:10.750Z,75.64
2022-11-30T18:38:11.569Z,76.68
2022-11-30T18:43:12.363Z,76.06
2022-11-30T18:48:14.606Z,77.16
2022-11-30T18:53:18.469Z,77.82
2022-11-30T18:58:19.492Z,77.15
2022-11-30T19:03:21.650Z,76.93
2022-11-30T19:08:22.481Z,77.14
2022-11-30T19:13:23.381Z,77.12
2022-11-30T19:18:25.591Z,77.23
2022-11-30T19:23:26.676Z,77.19
2022-11-30T19:28:30.101Z,77.47
2022-11-30T19:33:32.330Z,77.21
2022-11-30T19:38:33.162Z,77.21
2022-11-30T19:43:34.264Z,77.71
2022-11-30T19:48:39.029Z,78.63
2022-11-30T19:53:40.942Z,78.64
2022-11-30T19:58:42.411Z,78.51
2022-11-30T20:03:45.033Z,79.41
2022-11-30T20:08:46.050Z,79.50
2022-11-30T20:13:46.961Z,79.55
2022-11-30T20:18:55.905Z,80.51
2022-11-30T20:23:59.268Z,80.23
2022-11-30T20:29:01.782Z,79.84
2022-11-30T20:34:04.079Z,80.33
2022-11-30T20:39:05.690Z,80.38
2022-11-30T20:44:06.674Z,80.81
2022-11-30T20:49:17.451Z,81.31
2022-11-30T20:54:18.647Z,81.66
2022-11-30T20:59:23.634Z,80.66
2022-11-30T21:04:26.796Z,80.65
2022-11-30T21:09:27.715Z,81.06
2022-11-30T21:14:28.552Z,81.20
2022-11-30T21:19:30.707Z,81.60
2022-11-30T21:24:31.617Z,81.51
2022-11-30T21:29:32.411Z,81.53
2022-11-30T21:34:34.588Z,81.22
2022-11-30T21:39:36.328Z,80.81
2022-11-30T21:44:37.123Z,80.80
2022-11-30T21:49:39.224Z,80.67
2022-11-30T21:54:39.993Z,80.65
2022-11-30T21:59:40.836Z,81.00
2022-11-30T22:04:43.351Z,80.96
2022-11-30T22:09:44.161Z,81.31
2022-11-30T22:14:44.940Z,80.97
2022-11-30T22:19:47.394Z,81.25
2022-11-30T22:24:48.973Z,80.96
2022-11-30T22:29:50.912Z,81.43
2022-11-30T22:34:53.036Z,81.83
2022-11-30T22:39:53.855Z,81.88
2022-11-30T22:44:54.639Z,82.30
2022-11-30T22:49:56.815Z,82.37
2022-11-30T22:54:57.652Z,83.26
2022-11-30T22:59:58.505Z,83.34
2022-11-30T23:05:00.734Z,83.02
2022-11-30T23:10:01.543Z,83.39
2022-11-30T23:15:02.356Z,83.14
2022-11-30T23:20:04.808Z,82.65
2022-11-30T23:25:06.153Z,83.28
2022-11-30T23:30:09.204Z,83.16
2022-11-30T23:35:11.576Z,82.74
2022-11-30T23:40:13.423Z,82.92
2022-11-30T23:45:14.266Z,83.07
2022-11-30T23:50:16.533Z,83.20
2022-11-30T23:55:17.458Z,82.98
